Terminal Aerodrome Forecast
Issued by NWS

Home | Current Version | Previous Version | Text Only | Print | Product List | Glossary On
Versions: 1 2 3 4 5 6 7 8 9 10 11 12 13 14 15 16 17 18 19 20 21 22 23 24 25
045
FTUS46 KPDT 180541
TAFYKM
TAF
KYKM 180541Z 1806/1906 21005KT P6SM BKN050 OVC120
      TEMPO 1806/1810 2SM BR OVC006
     FM181500 24007KT P6SM -SHRA OVC040
     FM190400 22010KT 5SM -RA OVC030=

USA.gov is the U.S. government's official web portal to all federal, state and local government web resources and services.